createdAt,value
2023-03-13T00:05:27.814Z,4.00
2023-03-13T00:15:31.313Z,4.37
2023-03-13T00:25:34.228Z,3.70
2023-03-13T00:35:36.970Z,3.87
2023-03-13T00:45:39.913Z,3.35
2023-03-13T00:55:53.248Z,3.03
2023-03-13T01:06:01.018Z,2.90
2023-03-13T01:16:06.035Z,3.20
2023-03-13T01:26:09.560Z,3.47
2023-03-13T01:36:12.928Z,2.77
2023-03-13T01:46:21.585Z,3.15
2023-03-13T01:56:36.777Z,3.20
2023-03-13T02:06:43.588Z,2.60
2023-03-13T02:16:48.960Z,3.23
2023-03-13T02:26:52.221Z,4.00
2023-03-13T02:36:56.688Z,3.50
2023-03-13T02:47:00.261Z,3.47
2023-03-13T02:57:05.478Z,3.05
2023-03-13T03:07:08.430Z,3.53
2023-03-13T03:17:12.353Z,2.80
2023-03-13T03:27:15.547Z,3.88
2023-03-13T03:37:24.341Z,3.70
2023-03-13T03:47:28.915Z,4.00
2023-03-13T03:57:32.522Z,4.83
2023-03-13T04:07:36.812Z,4.72
2023-03-13T04:17:42.231Z,4.80
2023-03-13T04:27:46.276Z,3.70
2023-03-13T04:37:50.018Z,5.05
2023-03-13T04:48:15.891Z,3.93
2023-03-13T04:58:51.045Z,3.30
2023-03-13T05:09:10.417Z,3.40
2023-03-13T05:19:29.492Z,3.87
2023-03-13T05:29:38.430Z,2.67
2023-03-13T05:40:10.929Z,3.97
2023-03-13T05:50:33.910Z,5.10
2023-03-13T06:00:55.168Z,4.20
2023-03-13T06:11:20.937Z,3.47
2023-03-13T06:21:24.030Z,3.38
2023-03-13T06:31:26.759Z,3.13
2023-03-13T06:41:30.010Z,3.50
2023-03-13T06:51:33.445Z,3.13
2023-03-13T07:01:37.266Z,3.17
2023-03-13T07:11:39.840Z,3.17
2023-03-13T07:21:42.469Z,3.37
2023-03-13T07:31:45.199Z,3.35
2023-03-13T07:41:47.937Z,3.47
2023-03-13T07:51:52.948Z,3.00
2023-03-13T08:01:55.494Z,3.40
2023-03-13T08:11:58.111Z,2.40
2023-03-13T08:22:00.713Z,3.20
2023-03-13T08:32:03.263Z,3.92
2023-03-13T08:42:05.854Z,3.00
2023-03-13T08:52:08.440Z,1.93
2023-03-13T09:02:11.403Z,2.03
2023-03-13T09:12:29.653Z,1.92
2023-03-13T09:22:33.120Z,3.03
2023-03-13T09:32:41.076Z,2.23
2023-03-13T09:42:53.215Z,2.28
2023-03-13T09:53:04.684Z,1.63
2023-03-13T10:03:26.758Z,1.40
2023-03-13T10:13:51.416Z,1.42
2023-03-13T10:24:01.019Z,1.80
2023-03-13T10:34:11.583Z,2.37
2023-03-13T10:44:19.700Z,1.90
2023-03-13T10:54:30.440Z,1.75
2023-03-13T11:04:35.371Z,1.97
2023-03-13T11:14:38.024Z,1.90
2023-03-13T11:24:50.098Z,1.50
2023-03-13T11:54:44.004Z,2.10
2023-03-13T12:04:55.633Z,2.40
2023-03-13T12:15:38.922Z,1.88
2023-03-13T12:26:12.024Z,2.33
2023-03-13T12:36:52.073Z,2.10
2023-03-13T12:46:54.758Z,2.33
2023-03-13T12:57:15.922Z,2.47
2023-03-13T13:07:24.491Z,2.30
2023-03-13T13:17:34.269Z,2.33
2023-03-13T13:27:38.693Z,2.60
2023-03-13T13:37:44.117Z,2.20
2023-03-13T13:47:49.353Z,2.07
2023-03-13T13:58:18.875Z,2.25
2023-03-13T14:08:30.698Z,2.53
2023-03-13T14:18:33.325Z,2.90
2023-03-13T14:28:35.789Z,2.40
2023-03-13T14:38:38.525Z,2.83
2023-03-13T14:48:41.812Z,2.50
2023-03-13T14:58:45.663Z,3.20
2023-03-13T15:09:07.519Z,2.92
2023-03-13T15:19:10.296Z,3.77
2023-03-13T15:29:13.556Z,2.77
2023-03-13T15:39:22.485Z,3.47
2023-03-13T15:49:25.003Z,5.40
2023-03-13T15:59:27.490Z,4.77
2023-03-13T16:09:30.043Z,7.30
2023-03-13T16:19:32.756Z,7.07
2023-03-13T16:29:35.552Z,4.70
2023-03-13T16:39:38.359Z,5.43
2023-03-13T16:49:40.791Z,5.57
2023-03-13T16:59:43.296Z,4.27
2023-03-13T17:09:46.501Z,26.30
2023-03-13T17:19:49.441Z,28.65
2023-03-13T17:29:53.188Z,14.67
2023-03-13T17:39:55.706Z,10.93
2023-03-13T17:49:58.858Z,10.32
2023-03-13T18:00:02.077Z,8.23
2023-03-13T18:10:24.206Z,11.73
2023-03-13T18:20:30.281Z,7.93
2023-03-13T18:30:33.294Z,6.07
2023-03-13T18:40:36.380Z,5.73
2023-03-13T18:50:39.238Z,5.13
2023-03-13T19:00:42.160Z,5.50
2023-03-13T19:10:44.780Z,5.83
2023-03-13T19:20:47.727Z,6.03
2023-03-13T19:30:50.259Z,4.68
2023-03-13T19:40:53.229Z,4.70
2023-03-13T19:50:55.837Z,4.53
2023-03-13T20:01:05.257Z,3.85
2023-03-13T20:11:15.879Z,4.87
2023-03-13T20:21:19.129Z,4.70
2023-03-13T20:31:24.469Z,4.00
2023-03-13T20:41:31.213Z,3.15
2023-03-13T20:51:34.415Z,2.43
2023-03-13T21:01:37.167Z,1.80
2023-03-13T21:11:39.603Z,1.92
2023-03-13T21:21:42.453Z,2.23
2023-03-13T21:31:45.037Z,2.20
2023-03-13T21:41:47.952Z,1.67
2023-03-13T21:51:50.475Z,2.10
2023-03-13T22:01:53.925Z,1.60
2023-03-13T22:11:56.511Z,1.60
2023-03-13T22:21:59.067Z,1.10
2023-03-13T22:32:02.548Z,1.60
2023-03-13T22:42:05.729Z,1.00
2023-03-13T22:52:08.284Z,1.17
2023-03-13T23:02:10.797Z,1.07
2023-03-13T23:12:13.274Z,0.80
2023-03-13T23:22:18.159Z,1.27
2023-03-13T23:32:21.284Z,0.93
2023-03-13T23:42:24.126Z,0.93
2023-03-13T23:52:27.011Z,1.27
